createdAt,value
2022-11-26T00:04:18.623Z,100583.63
2022-11-26T00:09:25.387Z,100588.88
2022-11-26T00:14:28.835Z,100590.73
2022-11-26T00:19:32.143Z,100591.83
2022-11-26T00:24:35.770Z,100592.95
2022-11-26T00:29:39.477Z,100593.80
2022-11-26T00:34:43.198Z,100595.45
2022-11-26T00:39:47.532Z,100595.64
2022-11-26T00:44:50.949Z,100603.38
2022-11-26T00:49:54.462Z,100604.00
2022-11-26T00:54:57.975Z,100604.45
2022-11-26T01:00:01.500Z,100604.84
2022-11-26T01:05:05.419Z,100606.26
2022-11-26T01:10:16.204Z,100612.17
2022-11-26T01:15:22.279Z,100617.51
2022-11-26T01:20:29.542Z,100625.83
2022-11-26T01:25:33.104Z,100629.99
2022-11-26T01:30:36.715Z,100631.84
2022-11-26T01:35:40.232Z,100633.14
2022-11-26T01:40:56.757Z,100637.92
2022-11-26T01:46:00.313Z,100637.05
2022-11-26T01:51:08.837Z,100637.27
2022-11-26T01:56:20.156Z,100636.42
2022-11-26T02:01:23.919Z,100641.34
2022-11-26T02:06:32.635Z,100643.77
2022-11-26T02:11:36.790Z,100635.80
2022-11-26T02:17:01.130Z,100641.34
2022-11-26T02:22:29.593Z,100638.02
2022-11-26T02:27:58.710Z,100635.23
2022-11-26T02:33:15.128Z,100633.54
2022-11-26T02:38:25.083Z,100636.84
2022-11-26T02:43:29.334Z,100633.35
2022-11-26T02:48:37.247Z,100632.45
2022-11-26T02:53:42.706Z,100635.81
2022-11-26T02:58:46.529Z,100636.50
2022-11-26T03:03:53.353Z,100639.61
2022-11-26T03:08:57.143Z,100651.17
2022-11-26T03:14:00.661Z,100655.63
2022-11-26T03:19:04.174Z,100662.86
2022-11-26T03:24:08.001Z,100671.61
2022-11-26T03:29:11.311Z,100674.85
2022-11-26T03:34:15.028Z,100684.41
2022-11-26T03:39:18.749Z,100684.19
2022-11-26T03:44:22.265Z,100688.63
2022-11-26T03:49:25.677Z,100691.95
2022-11-26T03:54:29.500Z,100694.61
2022-11-26T03:59:32.914Z,100693.67
2022-11-26T04:04:36.652Z,100692.14
2022-11-26T04:09:40.459Z,100690.05
2022-11-26T04:14:43.912Z,100687.35
2022-11-26T04:19:47.388Z,100692.90
2022-11-26T04:24:50.901Z,100696.20
2022-11-26T04:29:54.521Z,100699.91
2022-11-26T04:34:58.035Z,100703.08
2022-11-26T04:40:01.858Z,100703.27
2022-11-26T04:45:06.089Z,100712.73
2022-11-26T04:50:10.530Z,100716.34
2022-11-26T04:55:14.045Z,100709.36
2022-11-26T05:00:18.505Z,100712.31
2022-11-26T05:05:21.893Z,100719.45
2022-11-26T05:10:26.025Z,100725.25
2022-11-26T05:15:29.538Z,100730.52
2022-11-26T05:20:33.056Z,100735.89
2022-11-26T05:25:36.671Z,100740.15
2022-11-26T05:30:40.084Z,100754.42
2022-11-26T05:35:43.600Z,100760.80
2022-11-26T05:40:49.674Z,100768.63
2022-11-26T05:45:53.231Z,100775.46
2022-11-26T05:51:01.112Z,100781.98
2022-11-26T05:56:04.933Z,100787.09
2022-11-26T06:01:09.573Z,100787.60
2022-11-26T06:06:12.900Z,100788.30
2022-11-26T06:11:16.448Z,100789.60
2022-11-26T06:16:19.938Z,100789.83
2022-11-26T06:21:23.367Z,100802.02
2022-11-26T06:26:27.189Z,100807.98
2022-11-26T06:31:30.636Z,100807.71
2022-11-26T06:36:34.055Z,100815.17
2022-11-26T06:41:37.468Z,100823.05
2022-11-26T06:46:40.818Z,100826.52
2022-11-26T06:51:44.089Z,100830.02
2022-11-26T06:56:47.809Z,100831.23
2022-11-26T07:01:51.924Z,100840.15
2022-11-26T07:06:55.438Z,100845.08
2022-11-26T07:11:59.069Z,100849.10
2022-11-26T07:17:02.706Z,100862.91
2022-11-26T07:22:06.500Z,100868.04
2022-11-26T07:27:09.948Z,100878.98
2022-11-26T07:32:13.707Z,100885.44
2022-11-26T07:37:17.470Z,100885.58
2022-11-26T07:42:20.808Z,100896.44
2022-11-26T07:47:24.301Z,100895.48
2022-11-26T07:52:27.677Z,100895.50
2022-11-26T07:57:31.079Z,100898.33
2022-11-26T08:02:34.506Z,100896.98
2022-11-26T08:07:37.910Z,100898.52
2022-11-26T08:12:41.254Z,100900.33
2022-11-26T08:17:44.605Z,100902.21
2022-11-26T08:22:48.027Z,100914.41
2022-11-26T08:27:51.371Z,100914.51
2022-11-26T08:32:54.625Z,100919.23
2022-11-26T08:37:58.057Z,100923.86
2022-11-26T08:43:01.415Z,100928.40
2022-11-26T08:48:04.968Z,100929.34
2022-11-26T08:53:08.296Z,100931.05
2022-11-26T08:58:11.670Z,100933.42
2022-11-26T09:03:15.035Z,100931.32
2022-11-26T09:08:18.374Z,100931.14
2022-11-26T09:13:22.379Z,100942.60
2022-11-26T09:18:25.695Z,100953.38
2022-11-26T09:23:29.292Z,100957.90
2022-11-26T09:28:32.626Z,100953.83
2022-11-26T09:33:35.951Z,100959.19
2022-11-26T09:38:40.030Z,100968.71
2022-11-26T09:44:23.336Z,100966.65
2022-11-26T09:49:30.478Z,100967.94
2022-11-26T09:54:34.380Z,100974.27
2022-11-26T09:59:39.315Z,100973.72
2022-11-26T10:04:42.948Z,100982.12
2022-11-26T10:10:07.070Z,100974.99
2022-11-26T10:15:25.113Z,100979.67
2022-11-26T10:20:37.731Z,100976.23
2022-11-26T10:25:48.617Z,100981.45
2022-11-26T10:30:58.201Z,100987.10
2022-11-26T10:36:04.073Z,100994.00
2022-11-26T10:41:07.354Z,100997.52
2022-11-26T10:46:34.186Z,101005.70
2022-11-26T10:51:37.927Z,101005.37
2022-11-26T10:56:47.034Z,101003.45
2022-11-26T11:01:54.316Z,101003.96
2022-11-26T11:06:59.496Z,101012.75
2022-11-26T11:12:08.878Z,101013.86
2022-11-26T11:17:40.080Z,101017.45
2022-11-26T11:22:46.029Z,101018.88
2022-11-26T11:27:50.047Z,101018.86
2022-11-26T11:32:57.719Z,101025.30
2022-11-26T11:38:01.337Z,101021.58
2022-11-26T11:43:07.906Z,101024.15
2022-11-26T11:48:48.948Z,101024.32
2022-11-26T11:54:20.710Z,101025.16
2022-11-26T11:59:47.823Z,101023.63
2022-11-26T12:05:23.101Z,101020.13
2022-11-26T12:10:52.673Z,101027.59
2022-11-26T12:16:03.328Z,101029.68
2022-11-26T12:21:16.426Z,101029.17
2022-11-26T12:26:37.357Z,101029.88
2022-11-26T12:31:54.128Z,101034.09
2022-11-26T12:37:06.871Z,101026.23
2022-11-26T12:43:10.175Z,101030.77
2022-11-26T12:48:41.470Z,101034.66
2022-11-26T12:54:34.842Z,101031.02
2022-11-26T12:59:48.970Z,101039.17
2022-11-26T13:04:54.758Z,101033.89
2022-11-26T13:10:54.760Z,101042.69
2022-11-26T13:26:25.701Z,101053.48
2022-11-26T13:32:12.736Z,101052.16
2022-11-26T13:37:36.946Z,101054.88
2022-11-26T13:42:55.173Z,101061.64
2022-11-26T13:48:08.746Z,101065.83
2022-11-26T13:53:26.958Z,101068.48
2022-11-26T13:58:35.442Z,101070.95
2022-11-26T14:03:49.503Z,101075.92
2022-11-26T14:08:54.161Z,101079.72
2022-11-26T14:14:25.615Z,101083.30
2022-11-26T14:19:49.234Z,101085.79
2022-11-26T14:24:53.740Z,101092.77
2022-11-26T14:30:09.299Z,101091.94
2022-11-26T14:35:32.460Z,101085.58
2022-11-26T14:40:39.012Z,101090.55
2022-11-26T14:45:47.735Z,101090.23
2022-11-26T14:50:52.689Z,101097.62
2022-11-26T14:55:57.360Z,101102.12
2022-11-26T15:01:08.629Z,101104.05
2022-11-26T15:06:42.877Z,101106.02
2022-11-26T15:11:57.342Z,101110.98
2022-11-26T15:17:05.674Z,101107.48
2022-11-26T15:22:42.869Z,101109.64
2022-11-26T15:27:52.222Z,101105.11
2022-11-26T15:33:14.682Z,101101.36
2022-11-26T15:38:20.688Z,101098.54
2022-11-26T15:43:49.464Z,101101.14
2022-11-26T15:48:57.316Z,101107.71
2022-11-26T15:54:02.845Z,101107.30
2022-11-26T15:59:14.966Z,101109.25
2022-11-26T16:04:34.041Z,101110.45
2022-11-26T16:09:37.249Z,101103.95
2022-11-26T16:14:40.903Z,101103.48
2022-11-26T16:19:57.806Z,101102.34
2022-11-26T16:25:19.641Z,101102.65
2022-11-26T16:30:22.954Z,101106.91
2022-11-26T16:35:44.620Z,101108.06
2022-11-26T16:40:50.057Z,101113.00
2022-11-26T16:45:54.768Z,101115.73
2022-11-26T16:50:58.112Z,101118.39
2022-11-26T16:56:02.138Z,101122.13
2022-11-26T17:01:05.559Z,101130.29
2022-11-26T17:06:35.078Z,101137.66
2022-11-26T17:11:38.488Z,101133.54
2022-11-26T17:16:41.992Z,101131.90
2022-11-26T17:21:45.520Z,101134.92
2022-11-26T17:26:48.937Z,101137.49
2022-11-26T17:31:52.350Z,101134.94
2022-11-26T17:37:00.060Z,101136.85
2022-11-26T17:42:03.677Z,101140.44
2022-11-26T17:47:17.313Z,101147.19
2022-11-26T17:52:23.204Z,101147.10
2022-11-26T17:57:28.564Z,101158.50
2022-11-26T18:02:31.930Z,101163.94
2022-11-26T18:07:36.783Z,101161.98
2022-11-26T18:12:41.233Z,101161.86
2022-11-26T18:17:51.122Z,101158.95
2022-11-26T18:22:56.566Z,101153.04
2022-11-26T18:27:59.892Z,101152.63
2022-11-26T18:33:03.409Z,101152.08
2022-11-26T18:38:09.896Z,101154.52
2022-11-26T18:43:13.306Z,101166.24
2022-11-26T18:48:16.722Z,101170.98
2022-11-26T18:53:20.032Z,101169.25
2022-11-26T18:58:24.573Z,101170.59
2022-11-26T19:03:28.701Z,101170.08
2022-11-26T19:08:32.742Z,101176.61
2022-11-26T19:13:36.863Z,101180.45
2022-11-26T19:18:41.570Z,101182.16
2022-11-26T19:23:45.017Z,101184.19
2022-11-26T19:28:48.934Z,101182.48
2022-11-26T19:33:54.613Z,101182.17
2022-11-26T19:38:59.555Z,101183.23
2022-11-26T19:44:07.307Z,101187.21
2022-11-26T19:49:12.736Z,101190.11
2022-11-26T19:54:16.143Z,101190.42
2022-11-26T19:59:20.067Z,101195.34
2022-11-26T20:04:24.039Z,101195.66
2022-11-26T20:09:27.406Z,101200.81
2022-11-26T20:14:31.025Z,101206.64
2022-11-26T20:19:34.348Z,101206.55
2022-11-26T20:24:37.852Z,101208.05
2022-11-26T20:29:41.434Z,101206.80
2022-11-26T20:34:45.599Z,101201.74
2022-11-26T20:39:49.024Z,101200.65
2022-11-26T20:44:52.425Z,101198.79
2022-11-26T20:49:55.942Z,101204.85
2022-11-26T20:54:59.360Z,101206.33
2022-11-26T21:00:07.455Z,101203.99
2022-11-26T21:05:10.686Z,101208.03
2022-11-26T21:10:16.148Z,101212.02
2022-11-26T21:15:19.559Z,101214.95
2022-11-26T21:20:24.362Z,101221.45
2022-11-26T21:25:27.716Z,101221.02
2022-11-26T21:30:31.071Z,101221.42
2022-11-26T21:35:35.057Z,101220.10
2022-11-26T21:40:38.468Z,101213.42
2022-11-26T21:45:42.003Z,101219.77
2022-11-26T21:50:45.397Z,101220.43
2022-11-26T21:55:48.913Z,101214.98
2022-11-26T22:00:52.428Z,101210.41
2022-11-26T22:05:59.785Z,101217.55
2022-11-26T22:11:11.506Z,101216.37
2022-11-26T22:16:16.984Z,101213.11
2022-11-26T22:21:41.278Z,101210.77
2022-11-26T22:26:45.539Z,101216.83
2022-11-26T22:31:50.560Z,101217.06
2022-11-26T22:36:54.209Z,101214.98
2022-11-26T22:41:58.207Z,101213.66
2022-11-26T22:47:01.650Z,101209.13
2022-11-26T22:52:05.063Z,101208.02
2022-11-26T22:57:08.782Z,101208.33
2022-11-26T23:02:12.140Z,101203.04
2022-11-26T23:07:15.773Z,101205.14
2022-11-26T23:12:19.329Z,101205.63
2022-11-26T23:17:22.844Z,101205.26
2022-11-26T23:22:26.360Z,101203.39
2022-11-26T23:27:32.946Z,101203.39
2022-11-26T23:32:36.667Z,101208.61
2022-11-26T23:37:40.696Z,101209.16
2022-11-26T23:42:44.109Z,101208.15
2022-11-26T23:47:47.725Z,101209.41
2022-11-26T23:52:51.552Z,101202.50
2022-11-26T23:57:54.860Z,101200.23
